sensor_id;sensor_type;location;lat;lon;timestamp;temperature;humidity
33827;DHT22;20128;45.582;5.298;2024-01-11T00:01:23;3.70;99.90
33827;DHT22;20128;45.582;5.298;2024-01-11T00:03:49;3.70;99.90
33827;DHT22;20128;45.582;5.298;2024-01-11T00:06:14;3.70;99.90
33827;DHT22;20128;45.582;5.298;2024-01-11T00:08:40;3.80;99.90
33827;DHT22;20128;45.582;5.298;2024-01-11T00:11:06;3.80;99.90
33827;DHT22;20128;45.582;5.298;2024-01-11T00:13:31;3.80;99.90
33827;DHT22;20128;45.582;5.298;2024-01-11T00:15:57;3.80;99.90
33827;DHT22;20128;45.582;5.298;2024-01-11T00:18:22;3.80;99.90
33827;DHT22;20128;45.582;5.298;2024-01-11T00:20:48;3.80;99.90
33827;DHT22;20128;45.582;5.298;2024-01-11T00:23:13;3.80;99.90
33827;DHT22;20128;45.582;5.298;2024-01-11T00:25:39;3.80;99.90
33827;DHT22;20128;45.582;5.298;2024-01-11T00:28:05;3.80;99.90
33827;DHT22;20128;45.582;5.298;2024-01-11T00:30:30;3.80;99.90
33827;DHT22;20128;45.582;5.298;2024-01-11T00:32:56;3.80;99.90
33827;DHT22;20128;45.582;5.298;2024-01-11T00:35:21;3.80;99.90
33827;DHT22;20128;45.582;5.298;2024-01-11T00:37:47;3.80;99.90
33827;DHT22;20128;45.582;5.298;2024-01-11T00:40:13;3.80;99.90
33827;DHT22;20128;45.582;5.298;2024-01-11T00:42:38;3.80;99.90
33827;DHT22;20128;45.582;5.298;2024-01-11T00:45:04;3.80;99.90
33827;DHT22;20128;45.582;5.298;2024-01-11T00:47:30;3.80;99.90
33827;DHT22;20128;45.582;5.298;2024-01-11T00:49:55;3.80;99.90
33827;DHT22;20128;45.582;5.298;2024-01-11T00:52:21;3.80;99.90
33827;DHT22;20128;45.582;5.298;2024-01-11T00:54:47;3.90;99.90
33827;DHT22;20128;45.582;5.298;2024-01-11T00:57:12;3.90;99.90
33827;DHT22;20128;45.582;5.298;2024-01-11T00:59:40;3.90;99.90
33827;DHT22;20128;45.582;5.298;2024-01-11T01:02:05;3.80;99.90
33827;DHT22;20128;45.582;5.298;2024-01-11T01:04:31;3.80;99.90
33827;DHT22;20128;45.582;5.298;2024-01-11T01:06:57;3.80;99.90
33827;DHT22;20128;45.582;5.298;2024-01-11T01:09:22;3.80;99.90
33827;DHT22;20128;45.582;5.298;2024-01-11T01:11:48;3.80;99.90
33827;DHT22;20128;45.582;5.298;2024-01-11T01:14:14;3.80;99.90
33827;DHT22;20128;45.582;5.298;2024-01-11T01:16:39;3.80;99.90
33827;DHT22;20128;45.582;5.298;2024-01-11T01:19:05;3.80;99.90
33827;DHT22;20128;45.582;5.298;2024-01-11T01:21:31;3.80;99.90
33827;DHT22;20128;45.582;5.298;2024-01-11T01:23:56;3.80;99.90
33827;DHT22;20128;45.582;5.298;2024-01-11T01:26:22;3.80;99.90
33827;DHT22;20128;45.582;5.298;2024-01-11T01:28:47;3.80;99.90
33827;DHT22;20128;45.582;5.298;2024-01-11T01:31:13;3.80;99.90
33827;DHT22;20128;45.582;5.298;2024-01-11T01:33:40;3.90;99.90
33827;DHT22;20128;45.582;5.298;2024-01-11T01:36:09;3.90;99.90
33827;DHT22;20128;45.582;5.298;2024-01-11T01:38:35;3.90;99.90
33827;DHT22;20128;45.582;5.298;2024-01-11T01:41:00;3.90;99.90
33827;DHT22;20128;45.582;5.298;2024-01-11T01:43:26;3.90;99.90
33827;DHT22;20128;45.582;5.298;2024-01-11T01:45:52;3.90;99.90
33827;DHT22;20128;45.582;5.298;2024-01-11T01:48:18;3.80;99.90
33827;DHT22;20128;45.582;5.298;2024-01-11T01:50:44;3.80;99.90
33827;DHT22;20128;45.582;5.298;2024-01-11T01:53:17;3.80;99.90
33827;DHT22;20128;45.582;5.298;2024-01-11T01:55:43;3.80;99.90
33827;DHT22;20128;45.582;5.298;2024-01-11T01:58:09;3.80;99.90
33827;DHT22;20128;45.582;5.298;2024-01-11T02:00:35;3.80;99.90
33827;DHT22;20128;45.582;5.298;2024-01-11T02:03:01;3.80;99.90
33827;DHT22;20128;45.582;5.298;2024-01-11T02:05:27;3.80;99.90
33827;DHT22;20128;45.582;5.298;2024-01-11T02:07:52;3.80;99.90
33827;DHT22;20128;45.582;5.298;2024-01-11T02:10:19;3.80;99.90
33827;DHT22;20128;45.582;5.298;2024-01-11T02:12:44;3.70;99.90
33827;DHT22;20128;45.582;5.298;2024-01-11T02:15:10;3.80;99.90
33827;DHT22;20128;45.582;5.298;2024-01-11T02:17:36;3.70;99.90
33827;DHT22;20128;45.582;5.298;2024-01-11T02:20:02;3.70;99.90
33827;DHT22;20128;45.582;5.298;2024-01-11T02:22:34;3.70;99.90
33827;DHT22;20128;45.582;5.298;2024-01-11T02:25:00;3.80;99.90
33827;DHT22;20128;45.582;5.298;2024-01-11T02:27:27;3.70;99.90
33827;DHT22;20128;45.582;5.298;2024-01-11T02:29:53;3.80;99.90
33827;DHT22;20128;45.582;5.298;2024-01-11T02:32:19;3.80;99.90
33827;DHT22;20128;45.582;5.298;2024-01-11T02:34:44;3.80;99.90
33827;DHT22;20128;45.582;5.298;2024-01-11T02:37:11;3.80;99.90
33827;DHT22;20128;45.582;5.298;2024-01-11T02:39:37;3.80;99.90
33827;DHT22;20128;45.582;5.298;2024-01-11T02:42:02;3.80;99.90
33827;DHT22;20128;45.582;5.298;2024-01-11T02:44:28;3.80;99.90
33827;DHT22;20128;45.582;5.298;2024-01-11T02:46:54;3.90;99.90
33827;DHT22;20128;45.582;5.298;2024-01-11T02:49:19;3.90;99.90
33827;DHT22;20128;45.582;5.298;2024-01-11T02:51:45;3.90;99.90
33827;DHT22;20128;45.582;5.298;2024-01-11T02:54:11;3.90;99.90
33827;DHT22;20128;45.582;5.298;2024-01-11T02:56:36;3.90;99.90
33827;DHT22;20128;45.582;5.298;2024-01-11T02:59:02;3.90;99.90
33827;DHT22;20128;45.582;5.298;2024-01-11T03:01:28;3.90;99.90
33827;DHT22;20128;45.582;5.298;2024-01-11T03:03:54;3.80;99.90
33827;DHT22;20128;45.582;5.298;2024-01-11T03:06:20;3.80;99.90
33827;DHT22;20128;45.582;5.298;2024-01-11T03:08:48;3.90;99.90
33827;DHT22;20128;45.582;5.298;2024-01-11T03:11:14;3.90;99.90
33827;DHT22;20128;45.582;5.298;2024-01-11T03:13:40;3.90;99.90
33827;DHT22;20128;45.582;5.298;2024-01-11T03:16:05;3.90;99.90
33827;DHT22;20128;45.582;5.298;2024-01-11T03:18:31;3.90;99.90
33827;DHT22;20128;45.582;5.298;2024-01-11T03:20:57;3.90;99.90
33827;DHT22;20128;45.582;5.298;2024-01-11T03:23:22;3.90;99.90
33827;DHT22;20128;45.582;5.298;2024-01-11T03:25:48;3.90;99.90
33827;DHT22;20128;45.582;5.298;2024-01-11T03:28:14;3.90;99.90
33827;DHT22;20128;45.582;5.298;2024-01-11T03:30:40;3.80;99.90
33827;DHT22;20128;45.582;5.298;2024-01-11T03:33:05;3.80;99.90
33827;DHT22;20128;45.582;5.298;2024-01-11T03:35:31;3.80;99.90
33827;DHT22;20128;45.582;5.298;2024-01-11T03:37:57;3.80;99.90
33827;DHT22;20128;45.582;5.298;2024-01-11T03:40:22;3.80;99.90
33827;DHT22;20128;45.582;5.298;2024-01-11T03:42:48;3.80;99.90
33827;DHT22;20128;45.582;5.298;2024-01-11T03:45:16;3.90;99.90
33827;DHT22;20128;45.582;5.298;2024-01-11T03:47:43;3.90;99.90
33827;DHT22;20128;45.582;5.298;2024-01-11T03:50:09;3.90;99.90
33827;DHT22;20128;45.582;5.298;2024-01-11T03:52:34;3.80;99.90
33827;DHT22;20128;45.582;5.298;2024-01-11T03:55:00;3.80;99.90
33827;DHT22;20128;45.582;5.298;2024-01-11T03:57:25;3.80;99.90
33827;DHT22;20128;45.582;5.298;2024-01-11T03:59:51;3.80;99.90
33827;DHT22;20128;45.582;5.298;2024-01-11T04:02:17;3.80;99.90
33827;DHT22;20128;45.582;5.298;2024-01-11T04:04:42;3.80;99.90
33827;DHT22;20128;45.582;5.298;2024-01-11T04:07:08;3.80;99.90
33827;DHT22;20128;45.582;5.298;2024-01-11T04:09:36;3.80;99.90
33827;DHT22;20128;45.582;5.298;2024-01-11T04:12:02;3.80;99.90
33827;DHT22;20128;45.582;5.298;2024-01-11T04:14:29;3.80;99.90
33827;DHT22;20128;45.582;5.298;2024-01-11T04:16:54;3.80;99.90
33827;DHT22;20128;45.582;5.298;2024-01-11T04:19:20;3.90;99.90
33827;DHT22;20128;45.582;5.298;2024-01-11T04:21:45;3.90;99.90
33827;DHT22;20128;45.582;5.298;2024-01-11T04:24:11;3.90;99.90
33827;DHT22;20128;45.582;5.298;2024-01-11T04:26:37;4.00;99.90
33827;DHT22;20128;45.582;5.298;2024-01-11T04:29:02;4.00;99.90
33827;DHT22;20128;45.582;5.298;2024-01-11T04:31:28;4.00;99.90
33827;DHT22;20128;45.582;5.298;2024-01-11T04:33:54;4.10;99.90
33827;DHT22;20128;45.582;5.298;2024-01-11T04:36:20;4.10;99.90
33827;DHT22;20128;45.582;5.298;2024-01-11T04:38:45;4.10;99.90
33827;DHT22;20128;45.582;5.298;2024-01-11T04:41:12;4.10;99.90
33827;DHT22;20128;45.582;5.298;2024-01-11T04:43:43;4.10;99.90
33827;DHT22;20128;45.582;5.298;2024-01-11T04:46:22;4.10;99.90
33827;DHT22;20128;45.582;5.298;2024-01-11T04:48:49;4.10;99.90
33827;DHT22;20128;45.582;5.298;2024-01-11T04:51:16;4.10;99.90
33827;DHT22;20128;45.582;5.298;2024-01-11T04:53:42;4.00;99.90
33827;DHT22;20128;45.582;5.298;2024-01-11T04:56:09;4.10;99.90
33827;DHT22;20128;45.582;5.298;2024-01-11T04:58:40;4.10;99.90
33827;DHT22;20128;45.582;5.298;2024-01-11T05:01:06;4.10;99.90
33827;DHT22;20128;45.582;5.298;2024-01-11T05:03:32;4.10;99.90
33827;DHT22;20128;45.582;5.298;2024-01-11T05:05:58;4.10;99.90
33827;DHT22;20128;45.582;5.298;2024-01-11T05:08:25;4.10;99.90
33827;DHT22;20128;45.582;5.298;2024-01-11T05:10:51;4.10;99.90
33827;DHT22;20128;45.582;5.298;2024-01-11T05:13:17;4.20;99.90
33827;DHT22;20128;45.582;5.298;2024-01-11T05:15:43;4.20;99.90
33827;DHT22;20128;45.582;5.298;2024-01-11T05:18:09;4.10;99.90
33827;DHT22;20128;45.582;5.298;2024-01-11T05:20:36;4.10;99.90
33827;DHT22;20128;45.582;5.298;2024-01-11T05:23:01;4.10;99.90
33827;DHT22;20128;45.582;5.298;2024-01-11T05:25:27;4.00;99.90
33827;DHT22;20128;45.582;5.298;2024-01-11T05:27:53;4.10;99.90
33827;DHT22;20128;45.582;5.298;2024-01-11T05:30:18;4.10;99.90
33827;DHT22;20128;45.582;5.298;2024-01-11T05:32:44;4.10;99.90
33827;DHT22;20128;45.582;5.298;2024-01-11T05:35:10;4.10;99.90
33827;DHT22;20128;45.582;5.298;2024-01-11T05:37:36;4.10;99.90
33827;DHT22;20128;45.582;5.298;2024-01-11T05:40:02;4.10;99.90
33827;DHT22;20128;45.582;5.298;2024-01-11T05:42:28;4.20;99.90
33827;DHT22;20128;45.582;5.298;2024-01-11T05:44:53;4.10;99.90
33827;DHT22;20128;45.582;5.298;2024-01-11T05:47:19;4.10;99.90
33827;DHT22;20128;45.582;5.298;2024-01-11T05:49:45;4.10;99.90
33827;DHT22;20128;45.582;5.298;2024-01-11T05:52:11;4.10;99.90
33827;DHT22;20128;45.582;5.298;2024-01-11T05:54:36;4.00;99.90
33827;DHT22;20128;45.582;5.298;2024-01-11T05:57:02;4.10;99.90
33827;DHT22;20128;45.582;5.298;2024-01-11T05:59:28;4.00;99.90
33827;DHT22;20128;45.582;5.298;2024-01-11T06:01:53;4.10;99.90
33827;DHT22;20128;45.582;5.298;2024-01-11T06:04:19;4.00;99.90
33827;DHT22;20128;45.582;5.298;2024-01-11T06:06:44;4.00;99.90
33827;DHT22;20128;45.582;5.298;2024-01-11T06:09:10;4.00;99.90
33827;DHT22;20128;45.582;5.298;2024-01-11T06:11:36;3.90;99.90
33827;DHT22;20128;45.582;5.298;2024-01-11T06:14:02;3.90;99.90
33827;DHT22;20128;45.582;5.298;2024-01-11T06:16:28;3.90;99.90
33827;DHT22;20128;45.582;5.298;2024-01-11T06:18:54;3.90;99.90
33827;DHT22;20128;45.582;5.298;2024-01-11T06:23:45;3.90;99.90
33827;DHT22;20128;45.582;5.298;2024-01-11T06:26:11;3.90;99.90
33827;DHT22;20128;45.582;5.298;2024-01-11T06:28:36;3.90;99.90
33827;DHT22;20128;45.582;5.298;2024-01-11T06:31:02;3.90;99.90
33827;DHT22;20128;45.582;5.298;2024-01-11T06:33:28;3.90;99.90
33827;DHT22;20128;45.582;5.298;2024-01-11T06:35:54;4.00;99.90
33827;DHT22;20128;45.582;5.298;2024-01-11T06:38:20;3.90;99.90
33827;DHT22;20128;45.582;5.298;2024-01-11T06:40:45;4.00;99.90
33827;DHT22;20128;45.582;5.298;2024-01-11T06:43:11;4.00;99.90
33827;DHT22;20128;45.582;5.298;2024-01-11T06:45:37;3.90;99.90
33827;DHT22;20128;45.582;5.298;2024-01-11T06:48:03;4.00;99.90
33827;DHT22;20128;45.582;5.298;2024-01-11T06:50:28;4.00;99.90
33827;DHT22;20128;45.582;5.298;2024-01-11T06:52:54;3.90;99.90
33827;DHT22;20128;45.582;5.298;2024-01-11T06:55:20;3.90;99.90
33827;DHT22;20128;45.582;5.298;2024-01-11T06:57:48;4.00;99.90
33827;DHT22;20128;45.582;5.298;2024-01-11T07:00:14;3.90;99.90
33827;DHT22;20128;45.582;5.298;2024-01-11T07:02:41;3.90;99.90
33827;DHT22;20128;45.582;5.298;2024-01-11T07:05:07;4.00;99.90
33827;DHT22;20128;45.582;5.298;2024-01-11T07:07:33;3.90;99.90
33827;DHT22;20128;45.582;5.298;2024-01-11T07:09:59;3.90;99.90
33827;DHT22;20128;45.582;5.298;2024-01-11T07:12:25;3.90;99.90
33827;DHT22;20128;45.582;5.298;2024-01-11T07:14:53;3.90;99.90
33827;DHT22;20128;45.582;5.298;2024-01-11T07:17:19;3.80;99.90
33827;DHT22;20128;45.582;5.298;2024-01-11T07:19:44;3.80;99.90
33827;DHT22;20128;45.582;5.298;2024-01-11T07:22:10;3.80;99.90
33827;DHT22;20128;45.582;5.298;2024-01-11T07:24:36;3.80;99.90
33827;DHT22;20128;45.582;5.298;2024-01-11T07:27:05;3.80;99.90
33827;DHT22;20128;45.582;5.298;2024-01-11T07:29:31;3.80;99.90
33827;DHT22;20128;45.582;5.298;2024-01-11T07:31:58;3.80;99.90
33827;DHT22;20128;45.582;5.298;2024-01-11T07:34:24;3.80;99.90
33827;DHT22;20128;45.582;5.298;2024-01-11T07:36:50;3.80;99.90
33827;DHT22;20128;45.582;5.298;2024-01-11T07:39:16;3.80;99.90
33827;DHT22;20128;45.582;5.298;2024-01-11T07:41:41;3.80;99.90
33827;DHT22;20128;45.582;5.298;2024-01-11T07:44:07;3.90;99.90
33827;DHT22;20128;45.582;5.298;2024-01-11T07:46:33;3.90;99.90
33827;DHT22;20128;45.582;5.298;2024-01-11T07:48:59;3.90;99.90
33827;DHT22;20128;45.582;5.298;2024-01-11T07:51:24;3.90;99.90
33827;DHT22;20128;45.582;5.298;2024-01-11T07:53:50;3.90;99.90
33827;DHT22;20128;45.582;5.298;2024-01-11T07:56:16;3.90;99.90
33827;DHT22;20128;45.582;5.298;2024-01-11T07:58:42;3.90;99.90
33827;DHT22;20128;45.582;5.298;2024-01-11T08:01:09;3.90;99.90
33827;DHT22;20128;45.582;5.298;2024-01-11T08:03:34;4.00;99.90
33827;DHT22;20128;45.582;5.298;2024-01-11T08:06:01;3.90;99.90
33827;DHT22;20128;45.582;5.298;2024-01-11T08:08:26;3.90;99.90
33827;DHT22;20128;45.582;5.298;2024-01-11T08:10:53;3.80;99.90
33827;DHT22;20128;45.582;5.298;2024-01-11T08:13:19;3.90;99.90
33827;DHT22;20128;45.582;5.298;2024-01-11T08:15:46;3.90;99.90
33827;DHT22;20128;45.582;5.298;2024-01-11T08:18:12;3.90;99.90
33827;DHT22;20128;45.582;5.298;2024-01-11T08:20:39;3.80;99.90
33827;DHT22;20128;45.582;5.298;2024-01-11T08:23:05;3.80;99.90
33827;DHT22;20128;45.582;5.298;2024-01-11T08:25:30;3.80;99.90
33827;DHT22;20128;45.582;5.298;2024-01-11T08:27:56;3.80;99.90
33827;DHT22;20128;45.582;5.298;2024-01-11T08:30:21;3.80;99.90
33827;DHT22;20128;45.582;5.298;2024-01-11T08:32:48;3.70;99.90
33827;DHT22;20128;45.582;5.298;2024-01-11T08:35:14;3.70;99.90
33827;DHT22;20128;45.582;5.298;2024-01-11T08:37:40;3.60;99.90
33827;DHT22;20128;45.582;5.298;2024-01-11T08:40:06;3.60;99.90
33827;DHT22;20128;45.582;5.298;2024-01-11T08:42:32;3.60;99.90
33827;DHT22;20128;45.582;5.298;2024-01-11T08:44:58;3.60;99.90
33827;DHT22;20128;45.582;5.298;2024-01-11T08:47:24;3.60;99.90
33827;DHT22;20128;45.582;5.298;2024-01-11T08:49:50;3.60;99.90
33827;DHT22;20128;45.582;5.298;2024-01-11T08:52:15;3.70;99.90
33827;DHT22;20128;45.582;5.298;2024-01-11T08:54:41;3.60;99.90
33827;DHT22;20128;45.582;5.298;2024-01-11T08:57:06;3.60;99.90
33827;DHT22;20128;45.582;5.298;2024-01-11T08:59:32;3.60;99.90
33827;DHT22;20128;45.582;5.298;2024-01-11T09:01:58;3.60;99.90
33827;DHT22;20128;45.582;5.298;2024-01-11T09:04:24;3.60;99.90
33827;DHT22;20128;45.582;5.298;2024-01-11T09:06:49;3.60;99.90
33827;DHT22;20128;45.582;5.298;2024-01-11T09:09:15;3.50;99.90
33827;DHT22;20128;45.582;5.298;2024-01-11T09:11:42;3.60;99.90
33827;DHT22;20128;45.582;5.298;2024-01-11T09:14:08;3.60;99.90
33827;DHT22;20128;45.582;5.298;2024-01-11T09:16:36;3.60;99.90
33827;DHT22;20128;45.582;5.298;2024-01-11T09:19:02;3.70;99.90
33827;DHT22;20128;45.582;5.298;2024-01-11T09:21:29;3.60;99.90
33827;DHT22;20128;45.582;5.298;2024-01-11T09:23:54;3.70;99.90
33827;DHT22;20128;45.582;5.298;2024-01-11T09:26:20;3.70;99.90
33827;DHT22;20128;45.582;5.298;2024-01-11T09:28:46;3.70;99.90
33827;DHT22;20128;45.582;5.298;2024-01-11T09:31:12;3.70;99.90
33827;DHT22;20128;45.582;5.298;2024-01-11T09:33:38;3.80;99.90
33827;DHT22;20128;45.582;5.298;2024-01-11T09:36:04;3.90;99.90
33827;DHT22;20128;45.582;5.298;2024-01-11T09:38:30;3.90;99.90
33827;DHT22;20128;45.582;5.298;2024-01-11T09:43:31;4.00;99.90
33827;DHT22;20128;45.582;5.298;2024-01-11T09:45:57;4.00;99.90
33827;DHT22;20128;45.582;5.298;2024-01-11T09:48:23;4.00;99.90
33827;DHT22;20128;45.582;5.298;2024-01-11T09:50:50;4.00;99.90
33827;DHT22;20128;45.582;5.298;2024-01-11T09:53:18;4.00;99.90
33827;DHT22;20128;45.582;5.298;2024-01-11T09:55:46;4.10;99.90
33827;DHT22;20128;45.582;5.298;2024-01-11T09:58:13;4.10;99.90
33827;DHT22;20128;45.582;5.298;2024-01-11T10:00:39;4.10;99.90
33827;DHT22;20128;45.582;5.298;2024-01-11T10:03:06;4.20;99.90
33827;DHT22;20128;45.582;5.298;2024-01-11T10:05:34;4.10;99.90
33827;DHT22;20128;45.582;5.298;2024-01-11T10:08:00;4.20;99.90
33827;DHT22;20128;45.582;5.298;2024-01-11T10:10:26;4.20;99.90
33827;DHT22;20128;45.582;5.298;2024-01-11T10:12:53;4.20;99.90
33827;DHT22;20128;45.582;5.298;2024-01-11T10:15:18;4.20;99.90
33827;DHT22;20128;45.582;5.298;2024-01-11T10:17:45;4.20;99.90
33827;DHT22;20128;45.582;5.298;2024-01-11T10:20:12;4.20;99.90
33827;DHT22;20128;45.582;5.298;2024-01-11T10:22:43;4.20;99.90
33827;DHT22;20128;45.582;5.298;2024-01-11T10:25:13;4.20;99.90
33827;DHT22;20128;45.582;5.298;2024-01-11T10:27:43;4.20;99.90
33827;DHT22;20128;45.582;5.298;2024-01-11T10:30:10;4.20;99.90
33827;DHT22;20128;45.582;5.298;2024-01-11T10:32:42;4.20;99.90
33827;DHT22;20128;45.582;5.298;2024-01-11T10:35:07;4.20;99.90
33827;DHT22;20128;45.582;5.298;2024-01-11T10:37:33;4.20;99.90
33827;DHT22;20128;45.582;5.298;2024-01-11T10:40:03;4.20;99.90
33827;DHT22;20128;45.582;5.298;2024-01-11T10:42:31;4.30;99.90
33827;DHT22;20128;45.582;5.298;2024-01-11T10:44:59;4.30;99.90
33827;DHT22;20128;45.582;5.298;2024-01-11T10:47:30;4.30;99.90
33827;DHT22;20128;45.582;5.298;2024-01-11T10:49:57;4.30;99.90
33827;DHT22;20128;45.582;5.298;2024-01-11T10:52:28;4.30;99.90
33827;DHT22;20128;45.582;5.298;2024-01-11T10:54:59;4.30;99.90
33827;DHT22;20128;45.582;5.298;2024-01-11T10:57:26;4.20;99.90
33827;DHT22;20128;45.582;5.298;2024-01-11T10:59:53;4.20;99.90
33827;DHT22;20128;45.582;5.298;2024-01-11T11:02:20;4.20;99.90
33827;DHT22;20128;45.582;5.298;2024-01-11T11:04:48;4.10;99.90
33827;DHT22;20128;45.582;5.298;2024-01-11T11:07:16;4.10;99.90
33827;DHT22;20128;45.582;5.298;2024-01-11T11:09:44;4.10;99.90
33827;DHT22;20128;45.582;5.298;2024-01-11T11:12:11;4.10;99.90
33827;DHT22;20128;45.582;5.298;2024-01-11T11:14:36;4.00;99.90
33827;DHT22;20128;45.582;5.298;2024-01-11T11:17:04;4.10;99.90
33827;DHT22;20128;45.582;5.298;2024-01-11T11:19:30;4.00;99.90
33827;DHT22;20128;45.582;5.298;2024-01-11T11:21:56;4.00;99.90
33827;DHT22;20128;45.582;5.298;2024-01-11T11:24:22;4.00;99.90
33827;DHT22;20128;45.582;5.298;2024-01-11T11:26:47;4.00;99.90
33827;DHT22;20128;45.582;5.298;2024-01-11T11:29:15;4.00;99.90
33827;DHT22;20128;45.582;5.298;2024-01-11T11:31:46;4.00;99.90
33827;DHT22;20128;45.582;5.298;2024-01-11T11:34:46;4.00;99.90
33827;DHT22;20128;45.582;5.298;2024-01-11T11:37:12;4.00;99.90
33827;DHT22;20128;45.582;5.298;2024-01-11T11:39:41;4.00;99.90
33827;DHT22;20128;45.582;5.298;2024-01-11T11:42:07;4.00;99.90
33827;DHT22;20128;45.582;5.298;2024-01-11T11:44:38;3.90;99.90
33827;DHT22;20128;45.582;5.298;2024-01-11T11:47:22;3.90;99.90
33827;DHT22;20128;45.582;5.298;2024-01-11T11:50:08;3.90;99.90
33827;DHT22;20128;45.582;5.298;2024-01-11T11:52:38;3.90;99.90
33827;DHT22;20128;45.582;5.298;2024-01-11T11:55:06;3.90;99.90
33827;DHT22;20128;45.582;5.298;2024-01-11T11:57:33;3.90;99.90
33827;DHT22;20128;45.582;5.298;2024-01-11T12:00:07;3.90;99.90
33827;DHT22;20128;45.582;5.298;2024-01-11T12:02:36;3.80;99.90
33827;DHT22;20128;45.582;5.298;2024-01-11T12:05:02;3.80;99.90
33827;DHT22;20128;45.582;5.298;2024-01-11T12:07:29;3.80;99.90
33827;DHT22;20128;45.582;5.298;2024-01-11T12:09:56;3.70;99.90
33827;DHT22;20128;45.582;5.298;2024-01-11T12:12:21;3.80;99.90
33827;DHT22;20128;45.582;5.298;2024-01-11T12:14:48;3.70;99.90
33827;DHT22;20128;45.582;5.298;2024-01-11T12:17:15;3.70;99.90
33827;DHT22;20128;45.582;5.298;2024-01-11T12:19:40;3.70;99.90
33827;DHT22;20128;45.582;5.298;2024-01-11T12:22:06;3.60;99.90
33827;DHT22;20128;45.582;5.298;2024-01-11T12:24:32;3.60;99.90
33827;DHT22;20128;45.582;5.298;2024-01-11T12:26:59;3.60;99.90
33827;DHT22;20128;45.582;5.298;2024-01-11T12:29:28;3.60;99.90
33827;DHT22;20128;45.582;5.298;2024-01-11T12:31:56;3.60;99.90
33827;DHT22;20128;45.582;5.298;2024-01-11T12:34:22;3.60;99.90
33827;DHT22;20128;45.582;5.298;2024-01-11T12:36:49;3.60;99.90
33827;DHT22;20128;45.582;5.298;2024-01-11T12:39:16;3.60;99.90
33827;DHT22;20128;45.582;5.298;2024-01-11T12:41:42;3.60;99.90
33827;DHT22;20128;45.582;5.298;2024-01-11T12:44:08;3.60;99.90
33827;DHT22;20128;45.582;5.298;2024-01-11T12:46:34;3.50;99.90
33827;DHT22;20128;45.582;5.298;2024-01-11T12:49:00;3.50;99.90
33827;DHT22;20128;45.582;5.298;2024-01-11T12:51:26;3.50;99.90
33827;DHT22;20128;45.582;5.298;2024-01-11T12:53:52;3.40;99.90
33827;DHT22;20128;45.582;5.298;2024-01-11T12:56:18;3.40;99.90
33827;DHT22;20128;45.582;5.298;2024-01-11T12:58:47;3.40;99.90
33827;DHT22;20128;45.582;5.298;2024-01-11T13:01:12;3.40;99.90
33827;DHT22;20128;45.582;5.298;2024-01-11T13:03:44;3.40;99.90
33827;DHT22;20128;45.582;5.298;2024-01-11T13:06:11;3.30;99.90
33827;DHT22;20128;45.582;5.298;2024-01-11T13:08:37;3.30;99.90
33827;DHT22;20128;45.582;5.298;2024-01-11T13:11:07;3.40;99.90
33827;DHT22;20128;45.582;5.298;2024-01-11T13:13:33;3.40;99.90
33827;DHT22;20128;45.582;5.298;2024-01-11T13:16:00;3.40;99.90
33827;DHT22;20128;45.582;5.298;2024-01-11T13:18:25;3.40;99.90
33827;DHT22;20128;45.582;5.298;2024-01-11T13:20:51;3.40;99.90
33827;DHT22;20128;45.582;5.298;2024-01-11T13:23:18;3.40;99.90
33827;DHT22;20128;45.582;5.298;2024-01-11T13:25:48;3.50;99.90
33827;DHT22;20128;45.582;5.298;2024-01-11T13:28:15;3.50;99.90
33827;DHT22;20128;45.582;5.298;2024-01-11T13:30:42;3.50;99.90
33827;DHT22;20128;45.582;5.298;2024-01-11T13:33:08;3.50;99.90
33827;DHT22;20128;45.582;5.298;2024-01-11T13:35:35;3.50;99.90
33827;DHT22;20128;45.582;5.298;2024-01-11T13:38:01;3.50;99.90
33827;DHT22;20128;45.582;5.298;2024-01-11T13:40:28;3.50;99.90
33827;DHT22;20128;45.582;5.298;2024-01-11T13:42:55;3.50;99.90
33827;DHT22;20128;45.582;5.298;2024-01-11T13:45:24;3.50;99.90
33827;DHT22;20128;45.582;5.298;2024-01-11T13:47:50;3.50;99.90
33827;DHT22;20128;45.582;5.298;2024-01-11T13:50:16;3.50;99.90
33827;DHT22;20128;45.582;5.298;2024-01-11T13:52:43;3.50;99.90
33827;DHT22;20128;45.582;5.298;2024-01-11T13:55:09;3.50;99.90
33827;DHT22;20128;45.582;5.298;2024-01-11T13:57:37;3.50;99.90
33827;DHT22;20128;45.582;5.298;2024-01-11T14:00:04;3.60;99.90
33827;DHT22;20128;45.582;5.298;2024-01-11T14:02:30;3.60;99.90
33827;DHT22;20128;45.582;5.298;2024-01-11T14:04:56;3.50;99.90
33827;DHT22;20128;45.582;5.298;2024-01-11T14:07:21;3.60;99.90
33827;DHT22;20128;45.582;5.298;2024-01-11T14:09:47;3.50;99.90
33827;DHT22;20128;45.582;5.298;2024-01-11T14:12:13;3.50;99.90
33827;DHT22;20128;45.582;5.298;2024-01-11T14:14:40;3.50;99.90
33827;DHT22;20128;45.582;5.298;2024-01-11T14:17:06;3.60;99.90
33827;DHT22;20128;45.582;5.298;2024-01-11T14:19:32;3.50;99.90
33827;DHT22;20128;45.582;5.298;2024-01-11T14:21:57;3.60;99.90
33827;DHT22;20128;45.582;5.298;2024-01-11T14:24:23;3.60;99.90
33827;DHT22;20128;45.582;5.298;2024-01-11T14:26:50;3.70;99.90
33827;DHT22;20128;45.582;5.298;2024-01-11T14:29:16;3.70;99.90
33827;DHT22;20128;45.582;5.298;2024-01-11T14:31:42;3.80;99.90
33827;DHT22;20128;45.582;5.298;2024-01-11T14:34:08;3.70;99.90
33827;DHT22;20128;45.582;5.298;2024-01-11T14:36:36;3.80;99.90
33827;DHT22;20128;45.582;5.298;2024-01-11T14:39:01;3.70;99.90
33827;DHT22;20128;45.582;5.298;2024-01-11T14:41:31;3.70;99.90
33827;DHT22;20128;45.582;5.298;2024-01-11T14:43:58;3.80;99.90
33827;DHT22;20128;45.582;5.298;2024-01-11T14:46:25;3.80;99.90
33827;DHT22;20128;45.582;5.298;2024-01-11T14:48:51;3.60;99.90
33827;DHT22;20128;45.582;5.298;2024-01-11T14:51:17;3.60;99.90
33827;DHT22;20128;45.582;5.298;2024-01-11T14:53:43;3.70;99.90
33827;DHT22;20128;45.582;5.298;2024-01-11T14:56:08;3.60;99.90
33827;DHT22;20128;45.582;5.298;2024-01-11T14:58:34;3.60;99.90
33827;DHT22;20128;45.582;5.298;2024-01-11T15:01:00;3.60;99.90
33827;DHT22;20128;45.582;5.298;2024-01-11T15:03:26;3.60;99.90
33827;DHT22;20128;45.582;5.298;2024-01-11T15:05:54;3.60;99.90
33827;DHT22;20128;45.582;5.298;2024-01-11T15:08:20;3.60;99.90
33827;DHT22;20128;45.582;5.298;2024-01-11T15:10:46;3.60;99.90
33827;DHT22;20128;45.582;5.298;2024-01-11T15:13:12;3.60;99.90
33827;DHT22;20128;45.582;5.298;2024-01-11T15:15:38;3.70;99.90
33827;DHT22;20128;45.582;5.298;2024-01-11T15:18:04;3.70;99.90
33827;DHT22;20128;45.582;5.298;2024-01-11T15:20:30;3.70;99.90
33827;DHT22;20128;45.582;5.298;2024-01-11T15:22:55;3.70;99.90
33827;DHT22;20128;45.582;5.298;2024-01-11T15:25:21;3.70;99.90
33827;DHT22;20128;45.582;5.298;2024-01-11T15:27:49;3.80;99.90
33827;DHT22;20128;45.582;5.298;2024-01-11T15:30:15;3.80;99.90
33827;DHT22;20128;45.582;5.298;2024-01-11T15:32:40;3.70;99.90
33827;DHT22;20128;45.582;5.298;2024-01-11T15:35:06;3.80;99.90
33827;DHT22;20128;45.582;5.298;2024-01-11T15:37:37;3.80;99.80
33827;DHT22;20128;45.582;5.298;2024-01-11T15:40:03;3.80;99.90
33827;DHT22;20128;45.582;5.298;2024-01-11T15:42:30;3.80;99.80
33827;DHT22;20128;45.582;5.298;2024-01-11T15:44:56;3.80;99.90